Time;durP1;ratioP1;P1;durP2;ratioP2;P2;SDS_P1;SDS_P2;PMS_P1;PMS_P2;Temp;Humidity;BMP_temperature;BMP_pressure;BME280_temperature;BME280_humidity;BME280_pressure;Samples;Min_cycle;Max_cycle;Signal;HPM_P1;HPM_P2
2023/07/16 00:01:24;;;;;;;;;;;16.20;99.90;;;;;;5028068;28;19913;-90
2023/07/16 00:03:50;;;;;;;;;;;16.10;99.90;;;;;;5051209;28;19999;-87
2023/07/16 00:06:16;;;;;;;;;;;16.10;99.90;;;;;;5051854;28;20409;-80
2023/07/16 00:08:41;;;;;;;;;;;16.10;99.90;;;;;;5054176;28;20266;-86
2023/07/16 00:11:07;;;;;;;;;;;16.10;99.90;;;;;;5053855;28;19966;-86
2023/07/16 00:13:33;;;;;;;;;;;16.00;99.90;;;;;;5038493;28;19912;-85
2023/07/16 00:15:58;;;;;;;;;;;16.00;99.90;;;;;;5057583;28;20357;-86
2023/07/16 00:18:24;;;;;;;;;;;16.00;99.90;;;;;;5056410;28;19913;-86
2023/07/16 00:20:50;;;;;;;;;;;16.00;99.90;;;;;;5056082;28;19912;-84
2023/07/16 00:23:15;;;;;;;;;;;16.00;99.90;;;;;;5024380;28;19976;-86
2023/07/16 00:25:41;;;;;;;;;;;16.00;99.90;;;;;;5058635;28;19954;-82
2023/07/16 00:28:07;;;;;;;;;;;16.00;99.90;;;;;;5053179;28;20010;-84
2023/07/16 00:30:32;;;;;;;;;;;16.00;99.90;;;;;;5039529;28;19908;-84
2023/07/16 00:32:58;;;;;;;;;;;16.00;99.90;;;;;;5035948;28;19913;-84
2023/07/16 00:35:24;;;;;;;;;;;16.00;99.90;;;;;;5058487;28;20295;-84
2023/07/16 00:37:49;;;;;;;;;;;16.00;99.90;;;;;;5069214;28;19908;-86
2023/07/16 00:40:15;;;;;;;;;;;16.00;99.90;;;;;;5043754;28;19988;-84
2023/07/16 00:42:41;;;;;;;;;;;16.00;99.90;;;;;;5059565;28;19917;-85
2023/07/16 00:45:09;;;;;;;;;;;16.00;99.90;;;;;;5037023;28;19909;-84
2023/07/16 00:47:34;;;;;;;;;;;16.00;99.90;;;;;;5046970;28;19928;-85
2023/07/16 00:50:00;;;;;;;;;;;16.00;99.90;;;;;;5043976;28;19912;-85
2023/07/16 00:52:28;;;;;;;;;;;16.10;99.90;;;;;;5048483;28;19909;-81
2023/07/16 00:54:54;;;;;;;;;;;16.00;99.90;;;;;;5068826;28;19980;-85
2023/07/16 00:57:19;;;;;;;;;;;16.00;99.90;;;;;;5034585;28;19959;-85
2023/07/16 00:59:45;;;;;;;;;;;16.10;99.90;;;;;;5053503;28;19917;-86
2023/07/16 01:02:11;;;;;;;;;;;16.10;99.90;;;;;;5053298;28;19909;-85
2023/07/16 01:04:36;;;;;;;;;;;16.20;99.90;;;;;;5044449;28;19909;-85
2023/07/16 01:07:05;;;;;;;;;;;16.20;99.90;;;;;;5057746;28;19909;-84
2023/07/16 01:09:31;;;;;;;;;;;16.20;99.90;;;;;;5040781;28;19913;-83
2023/07/16 01:11:57;;;;;;;;;;;16.20;99.90;;;;;;5044215;28;20007;-84
2023/07/16 01:14:24;;;;;;;;;;;16.20;99.90;;;;;;5064707;28;19920;-84
2023/07/16 01:16:51;;;;;;;;;;;16.30;99.90;;;;;;5053788;28;19915;-84
2023/07/16 01:19:16;;;;;;;;;;;16.30;99.90;;;;;;5062794;28;19917;-85
2023/07/16 01:21:42;;;;;;;;;;;16.30;99.90;;;;;;5067505;28;19934;-85
2023/07/16 01:24:10;;;;;;;;;;;16.30;99.90;;;;;;5072395;28;20008;-85
2023/07/16 01:26:36;;;;;;;;;;;16.30;99.90;;;;;;5056074;28;19916;-84
2023/07/16 01:29:21;;;;;;;;;;;16.40;99.90;;;;;;5056494;28;20325;-87
2023/07/16 01:31:49;;;;;;;;;;;16.30;99.90;;;;;;5060617;28;19909;-87
2023/07/16 01:34:15;;;;;;;;;;;16.40;99.90;;;;;;5059487;28;19963;-85
2023/07/16 01:36:42;;;;;;;;;;;16.40;99.90;;;;;;5057903;28;19992;-86
2023/07/16 01:39:07;;;;;;;;;;;16.40;99.90;;;;;;5049198;28;19928;-86
2023/07/16 01:41:33;;;;;;;;;;;16.40;99.90;;;;;;5053633;28;19908;-84
2023/07/16 01:43:59;;;;;;;;;;;16.50;99.90;;;;;;5060392;28;19909;-84
2023/07/16 01:46:25;;;;;;;;;;;16.50;99.90;;;;;;5040474;28;19956;-86
2023/07/16 01:48:50;;;;;;;;;;;16.50;99.90;;;;;;5055951;28;19920;-85
2023/07/16 01:51:16;;;;;;;;;;;16.60;99.90;;;;;;5056353;28;19950;-86
2023/07/16 01:53:42;;;;;;;;;;;16.50;99.90;;;;;;5041849;28;19909;-86
2023/07/16 01:56:08;;;;;;;;;;;16.60;99.90;;;;;;5059844;28;19917;-85
2023/07/16 01:58:33;;;;;;;;;;;16.60;99.90;;;;;;5060902;28;19909;-87
2023/07/16 02:00:59;;;;;;;;;;;16.70;99.90;;;;;;5058206;28;19959;-86
2023/07/16 02:03:25;;;;;;;;;;;16.70;99.90;;;;;;5058532;28;19952;-87
2023/07/16 02:05:51;;;;;;;;;;;16.60;99.90;;;;;;5043201;28;19909;-87
2023/07/16 02:08:17;;;;;;;;;;;16.70;99.90;;;;;;5032265;28;19909;-87
2023/07/16 02:10:43;;;;;;;;;;;16.70;99.90;;;;;;5052222;28;19970;-86
2023/07/16 02:13:09;;;;;;;;;;;16.80;99.90;;;;;;5039983;28;19983;-87
2023/07/16 02:15:35;;;;;;;;;;;16.70;99.90;;;;;;5056631;28;19909;-86
2023/07/16 02:18:01;;;;;;;;;;;16.70;99.90;;;;;;5056805;28;19909;-86
2023/07/16 02:20:26;;;;;;;;;;;16.70;99.90;;;;;;5057151;28;19917;-87
2023/07/16 02:22:52;;;;;;;;;;;16.70;99.90;;;;;;5043761;28;19967;-86
2023/07/16 02:25:18;;;;;;;;;;;16.70;99.90;;;;;;5058731;28;19916;-87
2023/07/16 02:27:43;;;;;;;;;;;16.80;99.90;;;;;;5056567;28;19909;-85
2023/07/16 02:30:09;;;;;;;;;;;16.70;99.90;;;;;;5052854;28;19955;-85
2023/07/16 02:32:35;;;;;;;;;;;16.80;99.90;;;;;;5032733;28;19933;-84
2023/07/16 02:35:01;;;;;;;;;;;16.80;99.90;;;;;;5068803;28;19909;-84
2023/07/16 02:37:27;;;;;;;;;;;16.80;99.90;;;;;;5058624;28;19915;-85
2023/07/16 02:39:53;;;;;;;;;;;16.80;99.90;;;;;;5059239;28;19921;-85
2023/07/16 02:42:19;;;;;;;;;;;16.90;99.90;;;;;;5048590;28;19925;-84
2023/07/16 02:44:44;;;;;;;;;;;16.80;99.90;;;;;;5054019;28;20321;-84
2023/07/16 02:47:13;;;;;;;;;;;16.90;99.90;;;;;;5051274;28;20019;-86
2023/07/16 02:49:39;;;;;;;;;;;16.80;99.90;;;;;;5037013;28;19909;-84
2023/07/16 02:52:05;;;;;;;;;;;16.90;99.90;;;;;;5058956;28;19959;-85
2023/07/16 02:54:31;;;;;;;;;;;16.90;99.90;;;;;;5029736;28;19913;-84
2023/07/16 02:56:56;;;;;;;;;;;17.00;99.90;;;;;;5035633;28;19913;-83
2023/07/16 02:59:22;;;;;;;;;;;17.00;99.90;;;;;;5053468;28;20384;-85
2023/07/16 03:01:48;;;;;;;;;;;17.10;99.90;;;;;;5061261;28;20301;-86
2023/07/16 03:04:13;;;;;;;;;;;17.10;99.90;;;;;;5054922;28;19909;-84
2023/07/16 03:06:39;;;;;;;;;;;17.20;99.90;;;;;;5045546;28;19952;-85
2023/07/16 03:09:05;;;;;;;;;;;17.20;99.90;;;;;;5051291;28;19913;-86
2023/07/16 03:11:30;;;;;;;;;;;17.30;99.90;;;;;;5038920;28;19932;-85
2023/07/16 03:13:56;;;;;;;;;;;17.30;99.90;;;;;;5034857;28;20279;-87
2023/07/16 03:16:22;;;;;;;;;;;17.30;99.90;;;;;;5056434;28;19909;-82
2023/07/16 03:18:48;;;;;;;;;;;17.30;99.90;;;;;;5050645;28;19916;-86
2023/07/16 03:21:13;;;;;;;;;;;17.30;99.90;;;;;;5038500;28;19920;-86
2023/07/16 03:23:39;;;;;;;;;;;17.40;99.90;;;;;;5049633;28;19952;-85
2023/07/16 03:26:05;;;;;;;;;;;17.40;99.90;;;;;;5030032;28;20298;-85
2023/07/16 03:28:30;;;;;;;;;;;17.40;99.90;;;;;;5060756;28;20011;-84
2023/07/16 03:30:56;;;;;;;;;;;17.50;99.90;;;;;;5050118;28;19916;-86
2023/07/16 03:33:21;;;;;;;;;;;17.50;99.90;;;;;;5056857;28;19909;-84
2023/07/16 03:35:49;;;;;;;;;;;17.50;99.90;;;;;;5059096;28;19908;-86
2023/07/16 03:38:15;;;;;;;;;;;17.50;99.90;;;;;;5057081;28;19916;-85
2023/07/16 03:40:42;;;;;;;;;;;17.50;99.90;;;;;;5056203;28;19928;-86
2023/07/16 03:43:08;;;;;;;;;;;17.50;99.90;;;;;;5069441;28;19976;-86
2023/07/16 03:45:34;;;;;;;;;;;17.50;99.90;;;;;;5058983;28;19940;-87
2023/07/16 03:47:59;;;;;;;;;;;17.60;99.90;;;;;;5062405;28;20353;-85
2023/07/16 03:50:25;;;;;;;;;;;17.50;99.90;;;;;;5065070;28;19909;-85
2023/07/16 03:52:51;;;;;;;;;;;17.60;99.90;;;;;;5061234;28;19936;-85
2023/07/16 03:55:16;;;;;;;;;;;17.70;99.90;;;;;;5069794;28;19916;-84
2023/07/16 03:57:42;;;;;;;;;;;17.70;99.90;;;;;;5054927;28;19913;-84
2023/07/16 04:00:09;;;;;;;;;;;17.70;99.90;;;;;;5066714;28;19992;-86
2023/07/16 04:02:35;;;;;;;;;;;17.70;99.90;;;;;;5065657;28;19992;-86
2023/07/16 04:05:01;;;;;;;;;;;17.80;99.90;;;;;;5046111;28;19916;-88
2023/07/16 04:07:27;;;;;;;;;;;17.80;99.90;;;;;;5040105;28;19927;-88
2023/07/16 04:09:53;;;;;;;;;;;17.80;99.90;;;;;;5061455;28;20389;-87
2023/07/16 04:12:18;;;;;;;;;;;17.90;99.90;;;;;;5048800;28;19979;-85
2023/07/16 04:14:44;;;;;;;;;;;17.90;99.90;;;;;;5057327;28;19909;-85
2023/07/16 04:17:10;;;;;;;;;;;18.00;99.90;;;;;;5063508;28;19936;-86
2023/07/16 04:19:35;;;;;;;;;;;18.10;99.90;;;;;;5047535;28;19921;-85
2023/07/16 04:22:01;;;;;;;;;;;18.10;99.90;;;;;;5071248;28;19916;-88
2023/07/16 04:24:27;;;;;;;;;;;18.10;99.90;;;;;;5077603;28;19919;-86
2023/07/16 04:26:53;;;;;;;;;;;18.10;99.90;;;;;;5053926;28;19913;-87
2023/07/16 04:29:19;;;;;;;;;;;18.00;99.90;;;;;;5060496;28;19915;-88
2023/07/16 04:31:45;;;;;;;;;;;18.00;99.90;;;;;;5046523;28;19919;-87
2023/07/16 04:34:11;;;;;;;;;;;18.00;99.90;;;;;;5051224;28;19908;-86
2023/07/16 04:36:36;;;;;;;;;;;18.00;99.90;;;;;;5054528;28;20382;-87
2023/07/16 04:39:02;;;;;;;;;;;18.00;99.90;;;;;;5057392;28;19928;-88
2023/07/16 04:41:28;;;;;;;;;;;18.10;99.90;;;;;;5038189;28;19913;-84
2023/07/16 04:43:53;;;;;;;;;;;18.10;99.90;;;;;;5051624;28;19924;-84
2023/07/16 04:46:19;;;;;;;;;;;18.20;99.90;;;;;;5039114;28;19928;-87
2023/07/16 04:48:45;;;;;;;;;;;18.30;99.90;;;;;;5062133;28;19915;-89
2023/07/16 04:51:10;;;;;;;;;;;18.40;99.90;;;;;;5057469;28;19913;-89
2023/07/16 04:53:36;;;;;;;;;;;18.50;99.90;;;;;;5046963;28;20366;-88
2023/07/16 04:56:10;;;;;;;;;;;18.60;99.90;;;;;;5059446;28;19967;-86
2023/07/16 04:58:35;;;;;;;;;;;18.60;99.90;;;;;;5040380;28;19909;-83
2023/07/16 05:01:01;;;;;;;;;;;18.60;99.80;;;;;;5059687;28;20290;-85
2023/07/16 05:03:27;;;;;;;;;;;18.50;99.70;;;;;;5072494;28;19916;-87
2023/07/16 05:05:52;;;;;;;;;;;18.50;99.70;;;;;;5049607;28;19972;-85
2023/07/16 05:08:18;;;;;;;;;;;18.50;99.60;;;;;;5039691;28;19955;-83
2023/07/16 05:10:44;;;;;;;;;;;18.50;99.60;;;;;;5070766;28;19939;-85
2023/07/16 05:13:10;;;;;;;;;;;18.50;99.50;;;;;;5049332;28;19981;-85
2023/07/16 05:15:37;;;;;;;;;;;18.50;99.40;;;;;;5058829;28;19909;-85
2023/07/16 05:18:02;;;;;;;;;;;18.50;99.50;;;;;;5035712;28;20007;-86
2023/07/16 05:20:28;;;;;;;;;;;18.60;99.60;;;;;;5028873;28;19975;-86
2023/07/16 05:22:54;;;;;;;;;;;18.80;99.60;;;;;;5036142;28;19960;-85
2023/07/16 05:25:19;;;;;;;;;;;18.90;99.30;;;;;;5071681;28;19923;-86
2023/07/16 05:27:45;;;;;;;;;;;18.90;99.10;;;;;;5051051;28;19909;-86
2023/07/16 05:30:11;;;;;;;;;;;19.10;99.10;;;;;;5052394;28;19996;-86
2023/07/16 05:32:37;;;;;;;;;;;19.10;98.90;;;;;;5052101;28;20009;-85
2023/07/16 05:35:03;;;;;;;;;;;19.30;98.90;;;;;;5056525;28;19915;-84
2023/07/16 05:37:29;;;;;;;;;;;19.30;98.70;;;;;;5039492;28;19915;-86
2023/07/16 05:39:54;;;;;;;;;;;19.40;98.50;;;;;;5059245;28;19916;-85
2023/07/16 05:42:20;;;;;;;;;;;19.30;98.20;;;;;;5062398;28;19952;-84
2023/07/16 05:44:47;;;;;;;;;;;19.30;98.20;;;;;;5043256;28;19975;-84
2023/07/16 05:47:13;;;;;;;;;;;19.40;98.20;;;;;;5050671;28;19928;-87
2023/07/16 05:49:39;;;;;;;;;;;19.40;98.00;;;;;;5057432;28;19913;-89
2023/07/16 05:52:05;;;;;;;;;;;19.40;98.10;;;;;;5044079;28;19915;-89
2023/07/16 05:54:33;;;;;;;;;;;19.50;97.90;;;;;;5049904;28;19916;-88
2023/07/16 05:57:00;;;;;;;;;;;19.70;97.90;;;;;;5059903;28;19909;-86
2023/07/16 05:59:26;;;;;;;;;;;19.90;97.70;;;;;;5064552;28;19917;-87
2023/07/16 06:01:51;;;;;;;;;;;20.10;97.40;;;;;;5041614;28;19916;-84
2023/07/16 06:04:20;;;;;;;;;;;20.20;97.10;;;;;;5037632;28;19909;-85
2023/07/16 06:06:46;;;;;;;;;;;20.40;96.90;;;;;;5058149;28;19916;-86
2023/07/16 06:09:13;;;;;;;;;;;20.50;96.50;;;;;;5048248;28;19913;-86
2023/07/16 06:11:38;;;;;;;;;;;20.60;96.20;;;;;;5059770;28;19909;-85
2023/07/16 06:14:04;;;;;;;;;;;20.90;96.00;;;;;;5073523;28;19931;-85
2023/07/16 06:16:30;;;;;;;;;;;21.30;95.50;;;;;;5040160;28;19913;-85
2023/07/16 06:18:56;;;;;;;;;;;21.70;94.70;;;;;;5038554;28;19920;-86
2023/07/16 06:21:22;;;;;;;;;;;22.20;94.60;;;;;;5055469;28;19909;-84
2023/07/16 06:23:47;;;;;;;;;;;22.80;93.70;;;;;;5056899;28;19908;-87
2023/07/16 06:26:13;;;;;;;;;;;23.30;92.80;;;;;;5027899;28;19920;-85
2023/07/16 06:28:39;;;;;;;;;;;23.60;91.00;;;;;;5030752;28;19991;-86
2023/07/16 06:31:04;;;;;;;;;;;23.20;90.60;;;;;;5038647;28;19909;-84
2023/07/16 06:33:30;;;;;;;;;;;23.50;91.00;;;;;;5067320;28;19916;-84
2023/07/16 06:35:56;;;;;;;;;;;23.50;90.40;;;;;;5068193;28;19982;-83
2023/07/16 06:38:22;;;;;;;;;;;23.40;90.00;;;;;;5050756;28;19909;-84
2023/07/16 06:40:48;;;;;;;;;;;23.00;89.30;;;;;;5045328;28;19921;-85
2023/07/16 06:43:14;;;;;;;;;;;22.40;90.20;;;;;;5053895;28;19962;-84
2023/07/16 06:45:40;;;;;;;;;;;22.10;91.00;;;;;;5038474;28;19916;-85
2023/07/16 06:48:06;;;;;;;;;;;22.30;91.70;;;;;;5056176;28;20290;-85
2023/07/16 06:50:31;;;;;;;;;;;23.30;91.50;;;;;;5027047;28;19909;-82
2023/07/16 06:52:57;;;;;;;;;;;23.80;90.00;;;;;;5047708;28;20013;-85
2023/07/16 06:55:23;;;;;;;;;;;23.60;88.40;;;;;;5032281;28;19909;-85
2023/07/16 06:57:49;;;;;;;;;;;24.00;88.10;;;;;;5039083;28;19963;-85
2023/07/16 07:00:15;;;;;;;;;;;23.90;86.70;;;;;;5061247;28;19917;-87
2023/07/16 07:02:41;;;;;;;;;;;23.70;86.20;;;;;;5052900;28;19928;-87
2023/07/16 07:05:06;;;;;;;;;;;23.30;86.50;;;;;;5058089;28;19970;-85
2023/07/16 07:07:32;;;;;;;;;;;22.60;87.30;;;;;;5064261;28;19909;-85
2023/07/16 07:09:58;;;;;;;;;;;22.00;89.10;;;;;;5041685;28;19917;-84
2023/07/16 07:12:24;;;;;;;;;;;21.70;90.30;;;;;;5047604;28;19940;-87
2023/07/16 07:14:50;;;;;;;;;;;21.50;90.60;;;;;;5045888;28;19913;-86
2023/07/16 07:17:15;;;;;;;;;;;21.20;91.30;;;;;;5062682;28;19916;-87
2023/07/16 07:19:42;;;;;;;;;;;20.90;92.10;;;;;;5063509;28;19921;-86
2023/07/16 07:22:07;;;;;;;;;;;20.60;92.40;;;;;;5048442;28;19917;-87
2023/07/16 07:24:33;;;;;;;;;;;20.30;92.90;;;;;;5060591;28;19897;-86
2023/07/16 07:26:59;;;;;;;;;;;20.20;93.30;;;;;;5046859;28;19916;-86
2023/07/16 07:29:25;;;;;;;;;;;20.10;93.50;;;;;;5062004;28;19909;-88
2023/07/16 07:31:52;;;;;;;;;;;20.10;93.70;;;;;;5056894;28;19912;-84
2023/07/16 07:34:18;;;;;;;;;;;20.10;93.80;;;;;;5056695;28;19990;-85
2023/07/16 07:36:44;;;;;;;;;;;20.30;94.00;;;;;;5051190;28;20003;-88
2023/07/16 07:39:09;;;;;;;;;;;20.50;93.70;;;;;;5038413;28;19924;-86
2023/07/16 07:41:35;;;;;;;;;;;20.90;93.50;;;;;;5046113;28;19909;-85
2023/07/16 07:44:01;;;;;;;;;;;21.40;92.90;;;;;;5058324;28;19916;-86
2023/07/16 07:46:27;;;;;;;;;;;21.70;92.20;;;;;;5033560;28;20379;-86
2023/07/16 07:48:53;;;;;;;;;;;22.10;91.80;;;;;;5048861;28;19913;-87
2023/07/16 07:51:20;;;;;;;;;;;22.50;91.40;;;;;;5043304;28;19958;-85
2023/07/16 07:53:46;;;;;;;;;;;22.50;89.60;;;;;;5046042;28;19917;-89
2023/07/16 07:56:15;;;;;;;;;;;22.50;90.20;;;;;;5045089;28;19929;-86
2023/07/16 07:58:41;;;;;;;;;;;22.50;90.30;;;;;;5051773;28;19909;-88
2023/07/16 08:01:07;;;;;;;;;;;22.50;90.00;;;;;;5042925;28;19910;-88
2023/07/16 08:03:33;;;;;;;;;;;22.60;89.00;;;;;;5043014;28;19909;-86
2023/07/16 08:05:59;;;;;;;;;;;22.60;88.20;;;;;;5037038;28;19940;-86
2023/07/16 08:08:24;;;;;;;;;;;22.70;87.40;;;;;;5037429;28;19924;-88
2023/07/16 08:10:59;;;;;;;;;;;22.80;87.30;;;;;;5035273;28;19956;-86
2023/07/16 08:13:25;;;;;;;;;;;23.10;87.50;;;;;;5033651;28;20398;-89
2023/07/16 08:15:50;;;;;;;;;;;23.70;86.10;;;;;;5033326;28;19909;-86
2023/07/16 08:18:16;;;;;;;;;;;23.80;83.90;;;;;;5041889;28;19909;-86
2023/07/16 08:20:42;;;;;;;;;;;23.70;82.60;;;;;;5039386;28;19927;-87
2023/07/16 08:23:08;;;;;;;;;;;23.60;83.30;;;;;;5041266;28;19916;-88
2023/07/16 08:25:33;;;;;;;;;;;23.60;83.30;;;;;;5042901;28;19909;-87
2023/07/16 08:28:01;;;;;;;;;;;23.70;83.50;;;;;;5044660;28;20398;-87
2023/07/16 08:30:27;;;;;;;;;;;24.00;83.80;;;;;;5043928;28;19909;-88
2023/07/16 08:32:52;;;;;;;;;;;24.20;82.20;;;;;;5054556;28;20009;-89
2023/07/16 08:35:19;;;;;;;;;;;24.10;81.80;;;;;;5054552;28;19994;-89
2023/07/16 08:37:45;;;;;;;;;;;24.00;81.80;;;;;;5055158;28;19909;-88
2023/07/16 08:40:11;;;;;;;;;;;23.90;82.10;;;;;;5055542;28;19921;-88
2023/07/16 08:42:38;;;;;;;;;;;24.10;81.70;;;;;;5055068;28;19909;-87
2023/07/16 08:45:07;;;;;;;;;;;24.80;81.80;;;;;;5036118;28;19909;-86
2023/07/16 08:47:33;;;;;;;;;;;26.50;79.50;;;;;;5058570;28;19945;-89
2023/07/16 08:50:00;;;;;;;;;;;26.80;74.40;;;;;;5065338;28;19924;-86
2023/07/16 08:52:30;;;;;;;;;;;27.80;73.50;;;;;;5059045;28;19916;-84
2023/07/16 08:54:56;;;;;;;;;;;28.00;72.70;;;;;;5041347;28;19962;-82
2023/07/16 08:57:22;;;;;;;;;;;28.50;68.50;;;;;;5074119;28;19909;-87
2023/07/16 08:59:49;;;;;;;;;;;28.10;68.30;;;;;;5070450;28;20011;-85
2023/07/16 09:02:18;;;;;;;;;;;29.10;69.10;;;;;;5043303;28;19909;-86
2023/07/16 09:04:46;;;;;;;;;;;30.80;65.60;;;;;;5050124;28;20345;-86
2023/07/16 09:07:12;;;;;;;;;;;32.60;63.50;;;;;;5061625;28;19944;-89
2023/07/16 09:09:37;;;;;;;;;;;35.10;54.60;;;;;;5065056;28;20499;-85
2023/07/16 09:12:03;;;;;;;;;;;35.60;55.20;;;;;;5059140;28;19982;-85
2023/07/16 09:14:29;;;;;;;;;;;36.00;54.40;;;;;;5056854;28;20787;-88
2023/07/16 09:16:55;;;;;;;;;;;35.80;50.80;;;;;;5058525;28;19909;-82
2023/07/16 09:19:21;;;;;;;;;;;35.10;47.00;;;;;;5038379;28;19917;-86
2023/07/16 09:21:50;;;;;;;;;;;34.50;50.20;;;;;;5057756;28;19912;-86
2023/07/16 09:24:16;;;;;;;;;;;34.80;48.90;;;;;;5056906;28;19909;-87
2023/07/16 09:26:49;;;;;;;;;;;34.70;49.40;;;;;;5045866;28;20215;-84
2023/07/16 09:29:15;;;;;;;;;;;34.80;48.90;;;;;;5050999;28;19909;-85
2023/07/16 09:31:57;;;;;;;;;;;34.40;47.60;;;;;;5047811;28;19916;-85
2023/07/16 09:34:23;;;;;;;;;;;34.10;48.70;;;;;;5036096;28;19920;-87
2023/07/16 09:36:50;;;;;;;;;;;34.50;48.90;;;;;;5048043;28;19913;-88
2023/07/16 09:39:19;;;;;;;;;;;34.50;47.90;;;;;;5047557;28;19923;-88
2023/07/16 09:41:48;;;;;;;;;;;33.80;48.00;;;;;;5062103;28;19913;-86
2023/07/16 09:44:14;;;;;;;;;;;33.50;48.20;;;;;;5078865;28;19909;-87
2023/07/16 09:46:40;;;;;;;;;;;33.00;48.00;;;;;;5071253;28;19921;-88
2023/07/16 09:49:06;;;;;;;;;;;32.40;49.60;;;;;;5047909;28;19924;-87
2023/07/16 09:51:33;;;;;;;;;;;32.30;49.30;;;;;;5065912;28;19909;-87
2023/07/16 09:54:02;;;;;;;;;;;31.10;50.80;;;;;;5061581;28;19920;-87
2023/07/16 09:56:32;;;;;;;;;;;31.00;53.20;;;;;;5044360;28;19909;-88
2023/07/16 09:58:58;;;;;;;;;;;32.10;52.50;;;;;;5062600;28;19917;-89
2023/07/16 10:01:25;;;;;;;;;;;32.40;50.90;;;;;;5062375;28;19916;-89
2023/07/16 10:03:53;;;;;;;;;;;31.40;49.10;;;;;;5052233;28;19917;-89
2023/07/16 10:06:19;;;;;;;;;;;29.90;51.30;;;;;;5063269;28;19909;-87
2023/07/16 10:08:54;;;;;;;;;;;29.60;53.70;;;;;;5044918;28;19935;-89
2023/07/16 10:11:19;;;;;;;;;;;30.50;54.00;;;;;;5051005;28;20172;-89
2023/07/16 10:13:50;;;;;;;;;;;31.20;52.40;;;;;;5070453;28;19908;-87
2023/07/16 10:16:23;;;;;;;;;;;31.30;50.60;;;;;;5062937;28;19908;-90
2023/07/16 10:18:53;;;;;;;;;;;30.30;50.40;;;;;;5062105;28;19963;-89
2023/07/16 10:21:25;;;;;;;;;;;30.70;51.60;;;;;;5050618;28;20203;-87
2023/07/16 10:24:01;;;;;;;;;;;31.20;49.80;;;;;;5066118;28;19913;-86
2023/07/16 10:26:30;;;;;;;;;;;30.10;51.00;;;;;;5046143;28;19916;-88
2023/07/16 10:28:58;;;;;;;;;;;;;;;;;;5062677;28;19913;-88
2023/07/16 10:31:24;;;;;;;;;;;29.30;52.40;;;;;;5059217;28;19913;-86
2023/07/16 10:33:58;;;;;;;;;;;27.50;54.20;;;;;;5064396;28;19992;-87
2023/07/16 10:36:24;;;;;;;;;;;27.00;55.60;;;;;;5059295;28;19913;-88
2023/07/16 10:38:49;;;;;;;;;;;26.60;56.10;;;;;;5039580;28;19917;-86
2023/07/16 10:41:15;;;;;;;;;;;26.30;56.70;;;;;;5036405;28;19983;-86
2023/07/16 10:43:42;;;;;;;;;;;26.10;57.70;;;;;;5057443;28;19944;-86
2023/07/16 10:46:08;;;;;;;;;;;25.80;57.90;;;;;;5040666;28;19931;-86
2023/07/16 10:48:34;;;;;;;;;;;25.50;59.10;;;;;;5056513;28;19920;-85
2023/07/16 10:51:00;;;;;;;;;;;;;;;;;;5062744;28;20058;-87
2023/07/16 10:53:25;;;;;;;;;;;25.20;60.10;;;;;;5050741;28;19932;-85
2023/07/16 10:55:51;;;;;;;;;;;24.90;60.80;;;;;;5066203;28;19909;-85
2023/07/16 10:58:17;;;;;;;;;;;24.80;61.70;;;;;;5047587;28;19954;-86
2023/07/16 11:00:44;;;;;;;;;;;24.60;61.90;;;;;;5041911;28;20511;-83
2023/07/16 11:03:10;;;;;;;;;;;24.50;62.00;;;;;;5057878;28;19948;-85
2023/07/16 11:05:36;;;;;;;;;;;24.40;61.70;;;;;;5056799;28;19913;-83
2023/07/16 11:08:01;;;;;;;;;;;24.50;61.60;;;;;;5041831;28;19909;-84
2023/07/16 11:10:30;;;;;;;;;;;24.80;61.90;;;;;;5048729;28;19947;-85
2023/07/16 11:12:56;;;;;;;;;;;25.20;61.60;;;;;;5057537;28;20282;-85
2023/07/16 11:15:34;;;;;;;;;;;25.20;61.50;;;;;;5037968;28;19935;-84
2023/07/16 11:18:03;;;;;;;;;;;25.20;61.40;;;;;;5050218;28;19921;-84
2023/07/16 11:20:29;;;;;;;;;;;25.20;61.40;;;;;;5050988;28;19927;-84
2023/07/16 11:22:57;;;;;;;;;;;25.20;61.60;;;;;;5038767;28;19937;-86
2023/07/16 11:25:23;;;;;;;;;;;25.10;62.00;;;;;;5034723;28;19913;-83
2023/07/16 11:27:53;;;;;;;;;;;25.20;62.30;;;;;;5057496;28;19917;-85
2023/07/16 11:30:22;;;;;;;;;;;25.20;61.90;;;;;;5043125;28;20314;-86
2023/07/16 11:32:51;;;;;;;;;;;25.10;61.60;;;;;;5041394;28;19908;-83
2023/07/16 11:35:18;;;;;;;;;;;25.00;60.70;;;;;;5057306;28;20021;-82
2023/07/16 11:37:44;;;;;;;;;;;24.80;61.00;;;;;;5052761;28;19912;-85
2023/07/16 11:40:11;;;;;;;;;;;24.60;61.60;;;;;;5055405;28;19921;-84
2023/07/16 11:42:41;;;;;;;;;;;24.40;62.50;;;;;;5049720;28;19916;-84
2023/07/16 11:45:17;;;;;;;;;;;24.40;64.40;;;;;;5057455;28;20326;-86
2023/07/16 11:47:43;;;;;;;;;;;24.30;63.50;;;;;;5043919;28;19924;-87
2023/07/16 11:50:09;;;;;;;;;;;24.40;63.60;;;;;;5068505;28;19912;-86
2023/07/16 11:52:35;;;;;;;;;;;24.60;62.90;;;;;;5044470;28;19995;-88
2023/07/16 11:55:01;;;;;;;;;;;24.60;60.80;;;;;;5048735;28;19958;-84
2023/07/16 11:57:27;;;;;;;;;;;24.60;60.00;;;;;;5068821;28;19909;-92
2023/07/16 11:59:53;;;;;;;;;;;24.50;60.00;;;;;;5052331;28;19911;-92
2023/07/16 12:02:25;;;;;;;;;;;24.50;59.70;;;;;;5038671;28;19909;-95
2023/07/16 12:04:51;;;;;;;;;;;24.40;59.70;;;;;;5049649;28;19924;-90
2023/07/16 12:07:32;;;;;;;;;;;24.30;60.40;;;;;;5065559;28;19976;-93
2023/07/16 12:10:05;;;;;;;;;;;24.20;61.00;;;;;;5029528;28;19917;-92
2023/07/16 12:12:31;;;;;;;;;;;24.10;61.70;;;;;;5064635;28;19897;-93
2023/07/16 12:14:57;;;;;;;;;;;24.20;62.10;;;;;;5067273;28;19935;-91
2023/07/16 12:17:23;;;;;;;;;;;24.30;61.70;;;;;;5050118;28;19919;-91
2023/07/16 12:19:49;;;;;;;;;;;24.30;60.80;;;;;;5047792;28;19972;-93
2023/07/16 12:22:17;;;;;;;;;;;24.20;60.20;;;;;;5070611;28;20274;-91
2023/07/16 12:24:50;;;;;;;;;;;24.10;60.60;;;;;;5057139;28;19909;-91
2023/07/16 12:27:21;;;;;;;;;;;24.00;61.10;;;;;;5059253;28;19968;-92
2023/07/16 12:29:48;;;;;;;;;;;23.90;61.70;;;;;;5042708;28;19949;-89
2023/07/16 12:32:14;;;;;;;;;;;24.00;62.30;;;;;;5060113;28;19913;-93
2023/07/16 12:34:50;;;;;;;;;;;24.00;62.80;;;;;;5055683;28;19955;-94
2023/07/16 12:37:20;;;;;;;;;;;24.00;62.70;;;;;;5014120;28;19916;-91
2023/07/16 12:39:50;;;;;;;;;;;24.00;62.30;;;;;;5030232;28;19918;-93
2023/07/16 12:42:20;;;;;;;;;;;24.10;62.40;;;;;;5036080;28;19914;-90
2023/07/16 12:44:49;;;;;;;;;;;24.20;62.30;;;;;;5020415;28;19898;-91
2023/07/16 12:47:16;;;;;;;;;;;24.30;61.90;;;;;;4996617;28;19926;-94
2023/07/16 12:49:43;;;;;;;;;;;24.40;62.20;;;;;;5000743;28;19916;-90
2023/07/16 12:52:14;;;;;;;;;;;24.50;62.40;;;;;;5004960;28;19942;-92
2023/07/16 12:55:02;;;;;;;;;;;24.70;61.90;;;;;;4992888;28;19916;-90
2023/07/16 12:57:40;;;;;;;;;;;24.80;61.30;;;;;;4966934;29;19922;-91
2023/07/16 13:00:07;;;;;;;;;;;24.90;61.60;;;;;;4971558;28;19924;-91
2023/07/16 13:02:36;;;;;;;;;;;25.00;61.60;;;;;;4990513;28;19922;-92
2023/07/16 13:05:03;;;;;;;;;;;25.00;61.60;;;;;;4983724;28;19911;-88
2023/07/16 13:07:31;;;;;;;;;;;25.00;61.50;;;;;;5002059;28;19940;-89
2023/07/16 13:10:01;;;;;;;;;;;25.00;61.40;;;;;;5038761;28;19906;-87
2023/07/16 13:12:28;;;;;;;;;;;24.90;61.50;;;;;;5047241;28;19913;-86
2023/07/16 13:14:54;;;;;;;;;;;24.70;61.50;;;;;;5052828;28;19920;-85
2023/07/16 13:17:19;;;;;;;;;;;24.60;61.80;;;;;;5020057;28;19917;-85
2023/07/16 13:19:46;;;;;;;;;;;24.60;62.40;;;;;;5028669;28;19992;-86
2023/07/16 13:22:12;;;;;;;;;;;24.50;61.30;;;;;;5034116;28;19992;-87
2023/07/16 13:24:38;;;;;;;;;;;24.40;60.30;;;;;;5051010;28;19910;-84
2023/07/16 13:27:04;;;;;;;;;;;24.50;60.30;;;;;;5047779;28;20386;-84
2023/07/16 13:29:29;;;;;;;;;;;24.40;60.60;;;;;;5037445;28;19940;-85
2023/07/16 13:31:55;;;;;;;;;;;24.50;61.00;;;;;;5041936;28;19932;-87
2023/07/16 13:34:21;;;;;;;;;;;24.70;60.80;;;;;;5045118;28;19909;-85
2023/07/16 13:36:47;;;;;;;;;;;24.80;60.70;;;;;;5037482;28;20278;-85
2023/07/16 13:39:13;;;;;;;;;;;24.90;59.90;;;;;;5045908;28;19959;-86
2023/07/16 13:41:39;;;;;;;;;;;24.80;59.60;;;;;;5056452;28;20452;-85
2023/07/16 13:44:05;;;;;;;;;;;25.00;59.50;;;;;;5039675;28;19920;-85
2023/07/16 13:46:30;;;;;;;;;;;25.00;59.30;;;;;;5052076;28;19968;-86
2023/07/16 13:48:57;;;;;;;;;;;24.90;59.50;;;;;;5051940;28;19913;-85
2023/07/16 13:51:23;;;;;;;;;;;24.70;60.00;;;;;;5037010;28;19953;-85
2023/07/16 13:53:48;;;;;;;;;;;24.60;60.60;;;;;;5038119;28;19917;-83
2023/07/16 13:56:14;;;;;;;;;;;24.40;61.30;;;;;;5038363;28;19960;-85
2023/07/16 13:58:40;;;;;;;;;;;24.30;62.20;;;;;;5043500;28;19956;-85
2023/07/16 14:01:08;;;;;;;;;;;24.20;62.60;;;;;;5037343;28;19925;-85
2023/07/16 14:03:34;;;;;;;;;;;24.20;62.80;;;;;;5050316;28;20363;-85
2023/07/16 14:06:00;;;;;;;;;;;24.40;62.70;;;;;;5036173;28;19935;-88
2023/07/16 14:08:27;;;;;;;;;;;24.30;62.10;;;;;;5038672;28;19932;-88
2023/07/16 14:10:55;;;;;;;;;;;24.30;61.50;;;;;;5037533;28;19943;-88
2023/07/16 14:13:21;;;;;;;;;;;24.40;61.50;;;;;;5024008;28;20400;-86
2023/07/16 14:15:47;;;;;;;;;;;24.30;61.50;;;;;;5054119;28;19910;-88